GEMSL EGKA-EGMJ
Flight info
| Callsign | GEMSL |
|---|---|
| Flight time | N/A |
| Altitude | 2300 |
| Route | SFD/N0157F040 DCT EGKF/N0158F050 DCT EGMD/N0160F060 DCT EGKH DCT EGMF DCT EGTO DCT EGKB DCT OCK DCT EGTF DCT EGLM DCT EGTB/N0159F050 DCT EGTR DCT BPK DCT BKY DCT EGSU |
| Aircraft | PA24/L-SDGRY/S |
Departure
| Time | 2026-04-22 20:20 |
|---|---|
| Airport | Brighton City Airport (EGKA) |
Arrival
| Time | N/A |
|---|---|
| Airport | Little Gransden Airfield (EGMJ) |
| Time | Latitude | Longitude | Altitude | Speed | Heading |
|---|---|---|---|---|---|
| 2026-04-22 20:12 | 50.83412 | -0.29083 | 10 ft | 0 kts | 253° |
| 2026-04-22 20:14 | 50.83409 | -0.29089 | 7 ft | 4 kts | 217° |
| 2026-04-22 20:14 | 50.83373 | -0.29123 | 10 ft | 10 kts | 256° |
| 2026-04-22 20:14 | 50.83390 | -0.29207 | 10 ft | 7 kts | 336° |
| 2026-04-22 20:14 | 50.83430 | -0.29199 | 11 ft | 7 kts | 318° |
| 2026-04-22 20:15 | 50.83420 | -0.29308 | 10 ft | 16 kts | 244° |
| 2026-04-22 20:15 | 50.83353 | -0.29519 | 8 ft | 25 kts | 243° |
| 2026-04-22 20:15 | 50.83270 | -0.29782 | 7 ft | 22 kts | 248° |
| 2026-04-22 20:15 | 50.83225 | -0.29849 | 9 ft | 11 kts | 197° |
| 2026-04-22 20:16 | 50.83200 | -0.29871 | 9 ft | 2 kts | 357° |
| 2026-04-22 20:16 | 50.83205 | -0.29867 | 9 ft | 0 kts | 54° |
| 2026-04-22 20:17 | 50.83203 | -0.29855 | 8 ft | 3 kts | 142° |
| 2026-04-22 20:17 | 50.83198 | -0.29871 | 9 ft | 5 kts | 335° |
| 2026-04-22 20:17 | 50.83234 | -0.29851 | 9 ft | 4 kts | 5° |
| 2026-04-22 20:17 | 50.83269 | -0.29787 | 7 ft | 10 kts | 61° |
| 2026-04-22 20:18 | 50.83296 | -0.29698 | 7 ft | 9 kts | 63° |
| 2026-04-22 20:18 | 50.83327 | -0.29604 | 8 ft | 7 kts | 57° |
| 2026-04-22 20:18 | 50.83362 | -0.29616 | 9 ft | 6 kts | 329° |
| 2026-04-22 20:18 | 50.83388 | -0.29633 | 10 ft | 2 kts | 28° |
| 2026-04-22 20:19 | 50.83392 | -0.29627 | 10 ft | 0 kts | 56° |
| 2026-04-22 20:19 | 50.83458 | -0.29435 | 11 ft | 56 kts | 63° |
| 2026-04-22 20:19 | 50.83663 | -0.28723 | 187 ft | 82 kts | 69° |
| 2026-04-22 20:19 | 50.83764 | -0.27858 | 566 ft | 83 kts | 94° |
| 2026-04-22 20:20 | 50.83491 | -0.27016 | 791 ft | 87 kts | 119° |
| 2026-04-22 20:20 | 50.83112 | -0.26307 | 1108 ft | 85 kts | 121° |
| 2026-04-22 20:20 | 50.82687 | -0.25661 | 1370 ft | 84 kts | 127° |
| 2026-04-22 20:20 | 50.82206 | -0.25140 | 1654 ft | 85 kts | 133° |
| 2026-04-22 20:21 | 50.81802 | -0.24480 | 1941 ft | 81 kts | 103° |
| 2026-04-22 20:21 | 50.81669 | -0.23662 | 2235 ft | 77 kts | 97° |
| 2026-04-22 20:21 | 50.81555 | -0.22746 | 2319 ft | 96 kts | 98° |
| 2026-04-22 20:21 | 50.81435 | -0.21614 | 2345 ft | 112 kts | 98° |
| 2026-04-22 20:22 | 50.81287 | -0.20357 | 2394 ft | 118 kts | 99° |
| 2026-04-22 20:22 | 50.81096 | -0.19060 | 2347 ft | 125 kts | 102° |
| 2026-04-22 20:22 | 50.80830 | -0.17715 | 2315 ft | 127 kts | 107° |
| 2026-04-22 20:22 | 50.80550 | -0.16399 | 2324 ft | 127 kts | 104° |
| 2026-04-22 20:23 | 50.80293 | -0.15058 | 2315 ft | 129 kts | 103° |
| 2026-04-22 20:23 | 50.80007 | -0.13721 | 2317 ft | 129 kts | 105° |
| 2026-04-22 20:23 | 50.79690 | -0.12382 | 2308 ft | 130 kts | 105° |
| 2026-04-22 20:23 | 50.79483 | -0.11024 | 2311 ft | 128 kts | 94° |
| 2026-04-22 20:24 | 50.79444 | -0.09634 | 2303 ft | 126 kts | 90° |
| 2026-04-22 20:24 | 50.79404 | -0.08256 | 2300 ft | 124 kts | 95° |
| 2026-04-22 20:24 | 50.79233 | -0.06931 | 2300 ft | 124 kts | 103° |
| 2026-04-22 20:24 | 50.78998 | -0.05610 | 2301 ft | 125 kts | 103° |
| 2026-04-22 20:25 | 50.78766 | -0.04286 | 2303 ft | 126 kts | 102° |
| 2026-04-22 20:25 | 50.78534 | -0.02942 | 2303 ft | 127 kts | 102° |
| 2026-04-22 20:25 | 50.78297 | -0.01595 | 2306 ft | 127 kts | 102° |
| 2026-04-22 20:25 | 50.78068 | -0.00236 | 2304 ft | 128 kts | 100° |
| 2026-04-22 20:26 | 50.77842 | 0.01113 | 2303 ft | 126 kts | 100° |
| 2026-04-22 20:26 | 50.77623 | 0.02451 | 2303 ft | 126 kts | 99° |
| 2026-04-22 20:26 | 50.77407 | 0.03797 | 2303 ft | 126 kts | 99° |
| 2026-04-22 20:26 | 50.77193 | 0.05137 | 2303 ft | 126 kts | 99° |
| 2026-04-22 20:27 | 50.76978 | 0.06499 | 2306 ft | 129 kts | 101° |
| 2026-04-22 20:27 | 50.76757 | 0.07869 | 2306 ft | 128 kts | 101° |
| 2026-04-22 20:27 | 50.76539 | 0.09236 | 2306 ft | 128 kts | 101° |
| 2026-04-22 20:27 | 50.76323 | 0.10590 | 2306 ft | 127 kts | 100° |
| 2026-04-22 20:28 | 50.76116 | 0.11950 | 2306 ft | 127 kts | 99° |
| 2026-04-22 20:28 | 50.75921 | 0.13288 | 2307 ft | 126 kts | 99° |
| 2026-04-22 20:28 | 50.75738 | 0.14649 | 2310 ft | 127 kts | 101° |
| 2026-04-22 20:28 | 50.75546 | 0.16013 | 2304 ft | 126 kts | 99° |
| 2026-04-22 20:29 | 50.75347 | 0.17344 | 2301 ft | 124 kts | 98° |
| 2026-04-22 20:29 | 50.75146 | 0.18670 | 2301 ft | 124 kts | 99° |
| 2026-04-22 20:29 | 50.74940 | 0.19993 | 2304 ft | 125 kts | 100° |
| 2026-04-22 20:29 | 50.74729 | 0.21349 | 2304 ft | 128 kts | 101° |
| 2026-04-22 20:30 | 50.74331 | 0.22570 | 2305 ft | 129 kts | 133° |
| 2026-04-22 20:30 | 50.73446 | 0.22963 | 2304 ft | 142 kts | 176° |
| 2026-04-22 20:30 | 50.72532 | 0.22247 | 2304 ft | 156 kts | 218° |
| 2026-04-22 20:30 | 50.72036 | 0.20705 | 2305 ft | 168 kts | 256° |
| 2026-04-22 20:31 | 50.71909 | 0.18838 | 2304 ft | 173 kts | 265° |
| 2026-04-22 20:31 | 50.71813 | 0.16934 | 2308 ft | 173 kts | 266° |
| 2026-04-22 20:31 | 50.71728 | 0.15025 | 2309 ft | 175 kts | 266° |
| 2026-04-22 20:31 | 50.71645 | 0.13114 | 2306 ft | 175 kts | 266° |
| 2026-04-22 20:32 | 50.71561 | 0.11175 | 2305 ft | 179 kts | 266° |
| 2026-04-22 20:32 | 50.71462 | 0.09206 | 2305 ft | 181 kts | 266° |
| 2026-04-22 20:32 | 50.71358 | 0.07228 | 2305 ft | 181 kts | 266° |
| 2026-04-22 20:32 | 50.71253 | 0.05253 | 2307 ft | 179 kts | 266° |
| 2026-04-22 20:33 | 50.71246 | 0.03300 | 2306 ft | 179 kts | 283° |
| 2026-04-22 20:33 | 50.71867 | 0.01672 | 2308 ft | 173 kts | 324° |
| 2026-04-22 20:33 | 50.72918 | 0.00963 | 2310 ft | 160 kts | 5° |
| 2026-04-22 20:33 | 50.73938 | 0.01346 | 2312 ft | 146 kts | 36° |
| 2026-04-22 20:34 | 50.74805 | 0.02063 | 2316 ft | 138 kts | 36° |
| 2026-04-22 20:34 | 50.75642 | 0.02773 | 2307 ft | 136 kts | 36° |
| 2026-04-22 20:34 | 50.76470 | 0.03469 | 2303 ft | 134 kts | 36° |
| 2026-04-22 20:34 | 50.77291 | 0.04157 | 2298 ft | 133 kts | 36° |
| 2026-04-22 20:35 | 50.78119 | 0.04854 | 2301 ft | 137 kts | 36° |
| 2026-04-22 20:35 | 50.78957 | 0.05575 | 2306 ft | 137 kts | 36° |
| 2026-04-22 20:35 | 50.79792 | 0.06299 | 2308 ft | 136 kts | 36° |
| 2026-04-22 20:35 | 50.80625 | 0.06999 | 2305 ft | 133 kts | 36° |
| 2026-04-22 20:36 | 50.81433 | 0.07669 | 2308 ft | 132 kts | 36° |
| 2026-04-22 20:36 | 50.82261 | 0.08359 | 2308 ft | 135 kts | 36° |
| 2026-04-22 20:36 | 50.82811 | 0.08824 | 2306 ft | 136 kts | 36° |
| 2026-04-22 20:36 | 50.83640 | 0.09537 | 2307 ft | 136 kts | 36° |
| 2026-04-22 20:37 | 50.84739 | 0.10468 | 2307 ft | 133 kts | 36° |
| 2026-04-22 20:37 | 50.85559 | 0.11133 | 2305 ft | 132 kts | 36° |
| 2026-04-22 20:37 | 50.86377 | 0.11808 | 2307 ft | 133 kts | 36° |
| 2026-04-22 20:37 | 50.87200 | 0.12500 | 2309 ft | 135 kts | 36° |
| 2026-04-22 20:38 | 50.87792 | 0.12887 | 2233 ft | 140 kts | 20° |
| 2026-04-22 20:38 | 50.88721 | 0.12562 | 2133 ft | 146 kts | 334° |
| 2026-04-22 20:38 | 50.89533 | 0.11368 | 1807 ft | 165 kts | 323° |
| 2026-04-22 20:38 | 50.90229 | 0.09983 | 1738 ft | 157 kts | 299° |
| 2026-04-22 20:39 | 50.90205 | 0.08266 | 1481 ft | 165 kts | 252° |
| 2026-04-22 20:39 | 50.89675 | 0.06721 | 1393 ft | 155 kts | 228° |
| 2026-04-22 20:39 | 50.88875 | 0.05807 | 1429 ft | 135 kts | 190° |
| 2026-04-22 20:39 | 50.88006 | 0.05675 | 1385 ft | 120 kts | 158° |
| 2026-04-22 20:40 | 50.87348 | 0.06185 | 1453 ft | 95 kts | 112° |
| 2026-04-22 20:40 | 50.87196 | 0.07104 | 1234 ft | 78 kts | 85° |
| 2026-04-22 20:40 | 50.87182 | 0.07890 | 952 ft | 63 kts | 87° |
| 2026-04-22 20:40 | 50.87157 | 0.08534 | 736 ft | 55 kts | 87° |
| 2026-04-22 20:41 | 50.87155 | 0.09163 | 595 ft | 63 kts | 89° |
| 2026-04-22 20:41 | 50.87105 | 0.09812 | 415 ft | 54 kts | 94° |
| 2026-04-22 20:41 | 50.87050 | 0.10361 | 271 ft | 53 kts | 89° |
| 2026-04-22 20:41 | 50.87002 | 0.10954 | 172 ft | 56 kts | 92° |
| 2026-04-22 20:42 | 50.86939 | 0.11524 | 59 ft | 45 kts | 92° |
| 2026-04-22 20:42 | 50.86901 | 0.11966 | 24 ft | 32 kts | 93° |
| 2026-04-22 20:42 | 50.86856 | 0.12465 | 139 ft | 55 kts | 77° |
| 2026-04-22 20:42 | 50.86903 | 0.13142 | 412 ft | 66 kts | 83° |
| 2026-04-22 20:43 | 50.86888 | 0.13870 | 725 ft | 70 kts | 89° |
| 2026-04-22 20:43 | 50.86926 | 0.14634 | 1014 ft | 75 kts | 76° |
| 2026-04-22 20:43 | 50.87070 | 0.15448 | 1295 ft | 78 kts | 75° |
| 2026-04-22 20:43 | 50.87230 | 0.16273 | 1535 ft | 83 kts | 75° |
| 2026-04-22 20:44 | 50.87387 | 0.17154 | 1788 ft | 79 kts | 79° |
| 2026-04-22 20:44 | 50.87420 | 0.18016 | 2050 ft | 83 kts | 88° |
| 2026-04-22 20:44 | 50.87440 | 0.18993 | 2243 ft | 92 kts | 86° |
| 2026-04-22 20:44 | 50.87463 | 0.20061 | 2355 ft | 105 kts | 87° |
| 2026-04-22 20:45 | 50.87473 | 0.21308 | 2349 ft | 119 kts | 89° |
| 2026-04-22 20:45 | 50.87460 | 0.22641 | 2385 ft | 122 kts | 90° |
| 2026-04-22 20:45 | 50.87431 | 0.24004 | 2393 ft | 124 kts | 90° |
| 2026-04-22 20:45 | 50.87390 | 0.25380 | 2374 ft | 124 kts | 91° |
| 2026-04-22 20:46 | 50.87209 | 0.28138 | 2367 ft | 127 kts | 95° |
| 2026-04-22 20:46 | 50.87080 | 0.29535 | 2337 ft | 131 kts | 96° |
| 2026-04-22 20:46 | 50.87008 | 0.30951 | 2346 ft | 127 kts | 83° |
| 2026-04-22 20:47 | 50.87172 | 0.32316 | 2373 ft | 125 kts | 78° |
| 2026-04-22 20:47 | 50.87348 | 0.33636 | 2378 ft | 124 kts | 78° |
| 2026-04-22 20:47 | 50.87523 | 0.34958 | 2372 ft | 122 kts | 78° |
| 2026-04-22 20:47 | 50.87697 | 0.36273 | 2374 ft | 123 kts | 78° |
| 2026-04-22 20:48 | 50.87868 | 0.37610 | 2386 ft | 123 kts | 78° |
| 2026-04-22 20:48 | 50.88032 | 0.38935 | 2392 ft | 123 kts | 78° |
| 2026-04-22 20:48 | 50.88193 | 0.40258 | 2394 ft | 121 kts | 78° |
| 2026-04-22 20:48 | 50.88356 | 0.41572 | 2396 ft | 122 kts | 78° |
| 2026-04-22 20:49 | 50.88530 | 0.42871 | 2398 ft | 120 kts | 78° |
| 2026-04-22 20:49 | 50.88708 | 0.44170 | 2399 ft | 121 kts | 78° |
| 2026-04-22 20:49 | 50.88886 | 0.45464 | 2400 ft | 119 kts | 78° |
| 2026-04-22 20:49 | 50.89056 | 0.46746 | 2411 ft | 119 kts | 78° |
| 2026-04-22 20:50 | 50.89217 | 0.48030 | 2411 ft | 120 kts | 78° |
| 2026-04-22 20:50 | 50.89371 | 0.49331 | 2403 ft | 119 kts | 78° |
| 2026-04-22 20:50 | 50.89522 | 0.50623 | 2403 ft | 119 kts | 78° |
| 2026-04-22 20:50 | 50.89679 | 0.51916 | 2402 ft | 118 kts | 78° |
| 2026-04-22 20:51 | 50.89838 | 0.53184 | 2403 ft | 119 kts | 78° |
| 2026-04-22 20:51 | 50.90014 | 0.54471 | 2403 ft | 121 kts | 77° |
| 2026-04-22 20:51 | 50.90187 | 0.55777 | 2402 ft | 121 kts | 77° |
| 2026-04-22 20:51 | 50.90362 | 0.57072 | 2404 ft | 121 kts | 78° |
| 2026-04-22 20:52 | 50.90544 | 0.58395 | 2402 ft | 124 kts | 77° |
| 2026-04-22 20:52 | 50.90721 | 0.59708 | 2401 ft | 120 kts | 77° |
| 2026-04-22 20:52 | 50.90900 | 0.60995 | 2399 ft | 120 kts | 77° |
| 2026-04-22 20:52 | 50.91083 | 0.62283 | 2398 ft | 121 kts | 77° |
| 2026-04-22 20:53 | 50.91269 | 0.63582 | 2397 ft | 120 kts | 77° |
| 2026-04-22 20:53 | 50.91457 | 0.64875 | 2395 ft | 120 kts | 77° |
| 2026-04-22 20:53 | 50.91643 | 0.66173 | 2392 ft | 121 kts | 77° |
| 2026-04-22 20:53 | 50.91834 | 0.67473 | 2390 ft | 121 kts | 77° |
| 2026-04-22 20:54 | 50.92027 | 0.68758 | 2388 ft | 119 kts | 77° |
| 2026-04-22 20:54 | 50.92218 | 0.70048 | 2386 ft | 121 kts | 76° |
| 2026-04-22 20:54 | 50.92450 | 0.71337 | 2383 ft | 123 kts | 74° |
| 2026-04-22 20:54 | 50.92696 | 0.72642 | 2380 ft | 123 kts | 74° |
| 2026-04-22 20:55 | 50.92938 | 0.73932 | 2373 ft | 122 kts | 74° |
| 2026-04-22 20:55 | 50.93176 | 0.75183 | 2364 ft | 118 kts | 74° |
| 2026-04-22 20:55 | 50.93417 | 0.76435 | 2250 ft | 122 kts | 74° |
| 2026-04-22 20:55 | 50.93663 | 0.77754 | 2081 ft | 125 kts | 74° |
| 2026-04-22 20:56 | 50.93880 | 0.79073 | 2053 ft | 123 kts | 74° |
| 2026-04-22 20:56 | 50.93880 | 0.80429 | 1885 ft | 129 kts | 104° |
| 2026-04-22 20:56 | 50.93511 | 0.81769 | 1758 ft | 132 kts | 102° |
| 2026-04-22 20:56 | 50.93299 | 0.83125 | 1585 ft | 123 kts | 94° |
| 2026-04-22 20:57 | 50.93177 | 0.84427 | 1369 ft | 114 kts | 90° |
| 2026-04-22 20:57 | 50.93112 | 0.85563 | 1359 ft | 91 kts | 88° |
| 2026-04-22 20:57 | 50.93067 | 0.86498 | 1303 ft | 83 kts | 86° |
| 2026-04-22 20:57 | 50.93021 | 0.87390 | 1210 ft | 81 kts | 87° |
| 2026-04-22 20:58 | 50.92971 | 0.88266 | 1118 ft | 80 kts | 89° |
| 2026-04-22 20:58 | 50.92912 | 0.89163 | 1018 ft | 82 kts | 90° |
| 2026-04-22 20:58 | 50.92849 | 0.90005 | 908 ft | 69 kts | 86° |
| 2026-04-22 20:58 | 50.92881 | 0.90731 | 715 ft | 63 kts | 73° |
| 2026-04-22 20:59 | 50.93080 | 0.91299 | 547 ft | 59 kts | 50° |
| 2026-04-22 20:59 | 50.93398 | 0.91640 | 452 ft | 53 kts | 43° |
| 2026-04-22 20:59 | 50.93695 | 0.91970 | 379 ft | 51 kts | 45° |
| 2026-04-22 20:59 | 50.94000 | 0.92259 | 311 ft | 50 kts | 44° |
| 2026-04-22 21:00 | 50.94290 | 0.92567 | 240 ft | 53 kts | 40° |
| 2026-04-22 21:00 | 50.94599 | 0.92873 | 157 ft | 52 kts | 44° |
| 2026-04-22 21:00 | 50.94890 | 0.93168 | 83 ft | 46 kts | 43° |
| 2026-04-22 21:00 | 50.95145 | 0.93436 | 23 ft | 41 kts | 43° |
| 2026-04-22 21:01 | 50.95327 | 0.93626 | 16 ft | 34 kts | 35° |
| 2026-04-22 21:01 | 50.95651 | 0.93906 | 94 ft | 66 kts | 41° |
| 2026-04-22 21:01 | 50.96030 | 0.94304 | 330 ft | 67 kts | 39° |
| 2026-04-22 21:01 | 50.96466 | 0.94377 | 609 ft | 72 kts | 352° |
| 2026-04-22 21:02 | 50.96913 | 0.93738 | 783 ft | 99 kts | 322° |
| 2026-04-22 21:02 | 50.97373 | 0.92861 | 1071 ft | 107 kts | 323° |
| 2026-04-22 21:02 | 50.97842 | 0.91940 | 1386 ft | 108 kts | 319° |
| 2026-04-22 21:02 | 50.98275 | 0.90855 | 1579 ft | 121 kts | 317° |
| 2026-04-22 21:03 | 50.98739 | 0.89790 | 1937 ft | 118 kts | 320° |
| 2026-04-22 21:03 | 50.99210 | 0.88736 | 2238 ft | 120 kts | 318° |
| 2026-04-22 21:03 | 50.99768 | 0.87685 | 2381 ft | 136 kts | 323° |
| 2026-04-22 21:03 | 51.00461 | 0.86545 | 2414 ft | 150 kts | 326° |
| 2026-04-22 21:04 | 51.01240 | 0.85390 | 2461 ft | 155 kts | 327° |
| 2026-04-22 21:04 | 51.02069 | 0.84265 | 2371 ft | 164 kts | 331° |
| 2026-04-22 21:04 | 51.02979 | 0.83222 | 2405 ft | 160 kts | 335° |
| 2026-04-22 21:04 | 51.03924 | 0.82268 | 2378 ft | 160 kts | 339° |
| 2026-04-22 21:05 | 51.04882 | 0.81388 | 2378 ft | 159 kts | 340° |
| 2026-04-22 21:05 | 51.05842 | 0.80553 | 2401 ft | 157 kts | 341° |
| 2026-04-22 21:05 | 51.06801 | 0.79706 | 2412 ft | 157 kts | 341° |
| 2026-04-22 21:05 | 51.07754 | 0.78867 | 2419 ft | 156 kts | 341° |
| 2026-04-22 21:06 | 51.08699 | 0.78026 | 2424 ft | 154 kts | 341° |
| 2026-04-22 21:06 | 51.09618 | 0.77202 | 2425 ft | 150 kts | 340° |
| 2026-04-22 21:06 | 51.10459 | 0.76254 | 2434 ft | 149 kts | 332° |
| 2026-04-22 21:06 | 51.11281 | 0.75250 | 2441 ft | 149 kts | 333° |
| 2026-04-22 21:07 | 51.12105 | 0.74252 | 2451 ft | 149 kts | 333° |
| 2026-04-22 21:07 | 51.12937 | 0.73262 | 2458 ft | 149 kts | 333° |
| 2026-04-22 21:07 | 51.13765 | 0.72263 | 2464 ft | 148 kts | 332° |
| 2026-04-22 21:07 | 51.14613 | 0.71328 | 2470 ft | 148 kts | 339° |
| 2026-04-22 21:08 | 51.15400 | 0.70281 | 2476 ft | 149 kts | 326° |
| 2026-04-22 21:08 | 51.16103 | 0.69071 | 2345 ft | 150 kts | 315° |
| 2026-04-22 21:08 | 51.16649 | 0.67605 | 1985 ft | 158 kts | 302° |
| 2026-04-22 21:08 | 51.17039 | 0.65977 | 1752 ft | 155 kts | 297° |
| 2026-04-22 21:09 | 51.17423 | 0.64377 | 1517 ft | 156 kts | 297° |
| 2026-04-22 21:09 | 51.17829 | 0.62788 | 1307 ft | 152 kts | 301° |
| 2026-04-22 21:09 | 51.18249 | 0.61359 | 1290 ft | 135 kts | 304° |
| 2026-04-22 21:09 | 51.18664 | 0.60114 | 1305 ft | 121 kts | 307° |
| 2026-04-22 21:10 | 51.18923 | 0.58932 | 1228 ft | 108 kts | 265° |
| 2026-04-22 21:10 | 51.18440 | 0.58161 | 1092 ft | 103 kts | 194° |
| 2026-04-22 21:10 | 51.17809 | 0.57709 | 1183 ft | 93 kts | 182° |
| 2026-04-22 21:10 | 51.17312 | 0.58068 | 1198 ft | 78 kts | 117° |
| 2026-04-22 21:11 | 51.16969 | 0.58687 | 1140 ft | 73 kts | 117° |
| 2026-04-22 21:11 | 51.16657 | 0.59281 | 1110 ft | 69 kts | 112° |
| 2026-04-22 21:11 | 51.16393 | 0.59931 | 968 ft | 70 kts | 103° |
| 2026-04-22 21:11 | 51.16236 | 0.60632 | 741 ft | 57 kts | 97° |
| 2026-04-22 21:12 | 51.16153 | 0.61163 | 593 ft | 46 kts | 92° |
| 2026-04-22 21:12 | 51.16088 | 0.61655 | 457 ft | 46 kts | 91° |
| 2026-04-22 21:12 | 51.16023 | 0.62195 | 351 ft | 52 kts | 100° |
| 2026-04-22 21:12 | 51.15926 | 0.62730 | 250 ft | 49 kts | 99° |
| 2026-04-22 21:13 | 51.15839 | 0.63276 | 132 ft | 50 kts | 102° |
| 2026-04-22 21:13 | 51.15755 | 0.63753 | 98 ft | 37 kts | 97° |
| 2026-04-22 21:13 | 51.15701 | 0.64122 | 98 ft | 56 kts | 104° |
| 2026-04-22 21:13 | 51.15517 | 0.64726 | 366 ft | 68 kts | 112° |
| 2026-04-22 21:14 | 51.15392 | 0.65441 | 799 ft | 70 kts | 77° |
| 2026-04-22 21:14 | 51.15667 | 0.66024 | 1219 ft | 71 kts | 31° |
| 2026-04-22 21:14 | 51.16240 | 0.66022 | 1489 ft | 93 kts | 356° |
| 2026-04-22 21:14 | 51.16879 | 0.65541 | 1838 ft | 103 kts | 348° |
| 2026-04-22 21:15 | 51.17458 | 0.65049 | 2348 ft | 97 kts | 346° |
| 2026-04-22 21:15 | 51.18134 | 0.64551 | 2542 ft | 121 kts | 350° |
| 2026-04-22 21:15 | 51.18989 | 0.64102 | 2601 ft | 135 kts | 354° |
| 2026-04-22 21:15 | 51.19926 | 0.63682 | 2591 ft | 145 kts | 355° |
| 2026-04-22 21:16 | 51.20930 | 0.63295 | 2532 ft | 152 kts | 358° |
| 2026-04-22 21:16 | 51.21973 | 0.63027 | 2525 ft | 153 kts | 3° |
| 2026-04-22 21:16 | 51.23024 | 0.62900 | 2527 ft | 150 kts | 7° |
| 2026-04-22 21:16 | 51.24063 | 0.62909 | 2523 ft | 148 kts | 13° |
| 2026-04-22 21:17 | 51.25080 | 0.63065 | 2529 ft | 145 kts | 16° |
| 2026-04-22 21:17 | 51.26081 | 0.63110 | 2526 ft | 145 kts | 9° |
| 2026-04-22 21:17 | 51.27100 | 0.63083 | 2523 ft | 147 kts | 9° |
| 2026-04-22 21:17 | 51.28122 | 0.63058 | 2520 ft | 146 kts | 9° |
| 2026-04-22 21:18 | 51.29143 | 0.63040 | 2517 ft | 147 kts | 9° |
| 2026-04-22 21:18 | 51.30155 | 0.63040 | 2515 ft | 148 kts | 9° |
| 2026-04-22 21:18 | 51.31183 | 0.63049 | 2470 ft | 144 kts | 10° |
| 2026-04-22 21:18 | 51.32181 | 0.63118 | 2167 ft | 145 kts | 14° |
| 2026-04-22 21:19 | 51.33179 | 0.63238 | 1781 ft | 143 kts | 3° |
| 2026-04-22 21:19 | 51.34124 | 0.62569 | 1394 ft | 158 kts | 329° |
| 2026-04-22 21:19 | 51.34670 | 0.61228 | 1571 ft | 137 kts | 291° |
| 2026-04-22 21:19 | 51.34675 | 0.59750 | 1690 ft | 131 kts | 266° |
| 2026-04-22 21:20 | 51.34508 | 0.58259 | 1667 ft | 141 kts | 257° |
| 2026-04-22 21:20 | 51.34297 | 0.56759 | 1631 ft | 133 kts | 257° |
| 2026-04-22 21:20 | 51.33914 | 0.55437 | 1497 ft | 130 kts | 224° |
| 2026-04-22 21:20 | 51.33219 | 0.54839 | 1438 ft | 101 kts | 175° |
| 2026-04-22 21:21 | 51.32660 | 0.55079 | 1523 ft | 74 kts | 118° |
| 2026-04-22 21:21 | 51.32486 | 0.55730 | 1440 ft | 61 kts | 88° |
| 2026-04-22 21:21 | 51.32465 | 0.56369 | 1410 ft | 56 kts | 80° |
| 2026-04-22 21:21 | 51.32467 | 0.56995 | 1349 ft | 55 kts | 84° |
| 2026-04-22 21:22 | 51.32458 | 0.57568 | 1210 ft | 47 kts | 82° |
| 2026-04-22 21:22 | 51.32489 | 0.58068 | 1031 ft | 44 kts | 70° |
| 2026-04-22 21:22 | 51.32623 | 0.58536 | 889 ft | 46 kts | 60° |
| 2026-04-22 21:22 | 51.32785 | 0.58940 | 765 ft | 41 kts | 62° |
| 2026-04-22 21:23 | 51.32955 | 0.59337 | 570 ft | 44 kts | 59° |
| 2026-04-22 21:23 | 51.33120 | 0.59730 | 431 ft | 40 kts | 58° |
| 2026-04-22 21:23 | 51.33241 | 0.60009 | 432 ft | 31 kts | 52° |
| 2026-04-22 21:23 | 51.33477 | 0.60459 | 561 ft | 62 kts | 39° |
| 2026-04-22 21:24 | 51.33975 | 0.60387 | 790 ft | 91 kts | 335° |
| 2026-04-22 21:24 | 51.34431 | 0.59411 | 1011 ft | 122 kts | 310° |
| 2026-04-22 21:24 | 51.34758 | 0.58180 | 1280 ft | 123 kts | 298° |
| 2026-04-22 21:24 | 51.35051 | 0.56847 | 1375 ft | 132 kts | 298° |
| 2026-04-22 21:25 | 51.35388 | 0.55451 | 1401 ft | 137 kts | 300° |
| 2026-04-22 21:25 | 51.35733 | 0.54018 | 1406 ft | 142 kts | 299° |
| 2026-04-22 21:25 | 51.36112 | 0.52550 | 1420 ft | 145 kts | 298° |
| 2026-04-22 21:25 | 51.36366 | 0.50986 | 1414 ft | 151 kts | 275° |
| 2026-04-22 21:26 | 51.36101 | 0.49355 | 1366 ft | 151 kts | 242° |
| 2026-04-22 21:26 | 51.35606 | 0.47966 | 1379 ft | 132 kts | 237° |
| 2026-04-22 21:26 | 51.35186 | 0.46757 | 1393 ft | 117 kts | 232° |
| 2026-04-22 21:26 | 51.34609 | 0.46042 | 1394 ft | 99 kts | 181° |
| 2026-04-22 21:27 | 51.34025 | 0.46171 | 1362 ft | 74 kts | 134° |
| 2026-04-22 21:27 | 51.33778 | 0.46456 | 1376 ft | 58 kts | 111° |
| 2026-04-22 21:27 | 51.33612 | 0.46964 | 1299 ft | 49 kts | 94° |
| 2026-04-22 21:27 | 51.33568 | 0.47506 | 1196 ft | 53 kts | 82° |
| 2026-04-22 21:28 | 51.33627 | 0.48141 | 1121 ft | 58 kts | 76° |
| 2026-04-22 21:28 | 51.33673 | 0.48768 | 1072 ft | 57 kts | 80° |
| 2026-04-22 21:28 | 51.33831 | 0.49378 | 1001 ft | 63 kts | 55° |
| 2026-04-22 21:28 | 51.34137 | 0.49790 | 829 ft | 54 kts | 45° |
| 2026-04-22 21:29 | 51.34464 | 0.50010 | 679 ft | 50 kts | 34° |
| 2026-04-22 21:29 | 51.34776 | 0.50187 | 507 ft | 43 kts | 34° |
| 2026-04-22 21:29 | 51.35021 | 0.50331 | 438 ft | 34 kts | 44° |
| 2026-04-22 21:29 | 51.35161 | 0.50434 | 427 ft | 15 kts | 22° |
| 2026-04-22 21:30 | 51.35499 | 0.50620 | 478 ft | 71 kts | 31° |
| 2026-04-22 21:30 | 51.35993 | 0.50782 | 768 ft | 81 kts | 3° |
| 2026-04-22 21:30 | 51.36469 | 0.50162 | 1004 ft | 106 kts | 302° |
| 2026-04-22 21:30 | 51.36396 | 0.48861 | 1152 ft | 133 kts | 251° |
| 2026-04-22 21:31 | 51.36061 | 0.47435 | 1424 ft | 136 kts | 250° |
| 2026-04-22 21:31 | 51.35771 | 0.46020 | 1842 ft | 130 kts | 252° |
| 2026-04-22 21:31 | 51.35520 | 0.44598 | 2112 ft | 139 kts | 253° |
| 2026-04-22 21:31 | 51.35285 | 0.43060 | 2270 ft | 151 kts | 256° |
| 2026-04-22 21:32 | 51.35047 | 0.41350 | 2336 ft | 164 kts | 258° |
| 2026-04-22 21:32 | 51.34846 | 0.39515 | 2403 ft | 168 kts | 260° |
| 2026-04-22 21:32 | 51.34669 | 0.37618 | 2337 ft | 175 kts | 261° |
| 2026-04-22 21:32 | 51.34514 | 0.35700 | 2310 ft | 177 kts | 264° |
| 2026-04-22 21:33 | 51.34410 | 0.33717 | 2231 ft | 181 kts | 268° |
| 2026-04-22 21:33 | 51.34381 | 0.31720 | 2241 ft | 178 kts | 272° |
| 2026-04-22 21:33 | 51.34421 | 0.29728 | 2185 ft | 181 kts | 272° |
| 2026-04-22 21:33 | 51.34411 | 0.27745 | 2238 ft | 176 kts | 271° |
| 2026-04-22 21:34 | 51.34348 | 0.25792 | 2282 ft | 176 kts | 264° |
| 2026-04-22 21:34 | 51.34153 | 0.23839 | 2245 ft | 179 kts | 259° |
| 2026-04-22 21:34 | 51.33910 | 0.21906 | 2250 ft | 177 kts | 258° |
| 2026-04-22 21:34 | 51.33666 | 0.19999 | 2258 ft | 173 kts | 258° |
| 2026-04-22 21:35 | 51.33425 | 0.18112 | 2260 ft | 174 kts | 258° |
| 2026-04-22 21:35 | 51.33174 | 0.16206 | 2260 ft | 176 kts | 258° |
| 2026-04-22 21:35 | 51.32915 | 0.14294 | 2261 ft | 176 kts | 258° |
| 2026-04-22 21:35 | 51.32650 | 0.12381 | 2323 ft | 177 kts | 258° |
| 2026-04-22 21:36 | 51.32400 | 0.10464 | 2320 ft | 175 kts | 258° |
| 2026-04-22 21:36 | 51.32148 | 0.08551 | 2310 ft | 176 kts | 258° |
| 2026-04-22 21:36 | 51.31893 | 0.06669 | 2301 ft | 175 kts | 257° |
| 2026-04-22 21:36 | 51.31639 | 0.04759 | 2292 ft | 175 kts | 258° |
| 2026-04-22 21:37 | 51.31387 | 0.02864 | 2285 ft | 172 kts | 258° |
| 2026-04-22 21:37 | 51.31146 | 0.01000 | 2281 ft | 172 kts | 257° |
| 2026-04-22 21:37 | 51.30896 | -0.00900 | 2233 ft | 177 kts | 257° |
| 2026-04-22 21:37 | 51.30639 | -0.02813 | 2228 ft | 176 kts | 259° |
| 2026-04-22 21:38 | 51.31024 | -0.04567 | 2152 ft | 172 kts | 327° |
| 2026-04-22 21:38 | 51.32121 | -0.04983 | 1989 ft | 160 kts | 13° |
| 2026-04-22 21:38 | 51.33115 | -0.04526 | 2112 ft | 138 kts | 43° |
| 2026-04-22 21:38 | 51.33491 | -0.03316 | 2094 ft | 119 kts | 93° |
| 2026-04-22 21:39 | 51.33083 | -0.02257 | 1997 ft | 118 kts | 137° |
| 2026-04-22 21:39 | 51.32455 | -0.01397 | 1830 ft | 116 kts | 128° |
| 2026-04-22 21:39 | 51.31898 | -0.00502 | 1676 ft | 108 kts | 129° |
| 2026-04-22 21:39 | 51.31425 | 0.00228 | 1624 ft | 84 kts | 126° |
| 2026-04-22 21:40 | 51.31120 | 0.00909 | 1433 ft | 73 kts | 96° |
| 2026-04-22 21:40 | 51.31217 | 0.01625 | 1169 ft | 69 kts | 54° |
| 2026-04-22 21:40 | 51.31581 | 0.02077 | 977 ft | 60 kts | 34° |
| 2026-04-22 21:40 | 51.31955 | 0.02354 | 850 ft | 59 kts | 35° |
| 2026-04-22 21:41 | 51.32319 | 0.02638 | 698 ft | 58 kts | 36° |
| 2026-04-22 21:41 | 51.32653 | 0.02892 | 643 ft | 46 kts | 39° |
| 2026-04-22 21:41 | 51.32861 | 0.03055 | 579 ft | 39 kts | 32° |
| 2026-04-22 21:41 | 51.33268 | 0.03267 | 660 ft | 78 kts | 35° |
| 2026-04-22 21:42 | 51.33790 | 0.03711 | 860 ft | 90 kts | 39° |
| 2026-04-22 21:42 | 51.34412 | 0.03891 | 1203 ft | 104 kts | 358° |
| 2026-04-22 21:42 | 51.35049 | 0.03206 | 1544 ft | 114 kts | 318° |
| 2026-04-22 21:42 | 51.35319 | 0.01923 | 1738 ft | 132 kts | 276° |
| 2026-04-22 21:43 | 51.35164 | 0.00419 | 1978 ft | 142 kts | 259° |
| 2026-04-22 21:43 | 51.34973 | -0.01167 | 2198 ft | 146 kts | 260° |
| 2026-04-22 21:43 | 51.34823 | -0.02811 | 2283 ft | 156 kts | 261° |
| 2026-04-22 21:43 | 51.34687 | -0.04557 | 2318 ft | 162 kts | 262° |
| 2026-04-22 21:44 | 51.34515 | -0.06381 | 2317 ft | 170 kts | 256° |
| 2026-04-22 21:44 | 51.34232 | -0.08234 | 2317 ft | 171 kts | 253° |
| 2026-04-22 21:44 | 51.33932 | -0.10085 | 2296 ft | 172 kts | 255° |
| 2026-04-22 21:44 | 51.33644 | -0.11944 | 2285 ft | 171 kts | 255° |
| 2026-04-22 21:45 | 51.33373 | -0.13817 | 2298 ft | 174 kts | 255° |
| 2026-04-22 21:45 | 51.33103 | -0.15717 | 2250 ft | 175 kts | 256° |
| 2026-04-22 21:45 | 51.32846 | -0.17623 | 2273 ft | 176 kts | 257° |
| 2026-04-22 21:45 | 51.32622 | -0.19541 | 2290 ft | 174 kts | 259° |
| 2026-04-22 21:46 | 51.32430 | -0.21440 | 2315 ft | 173 kts | 261° |
| 2026-04-22 21:46 | 51.32233 | -0.23359 | 2236 ft | 177 kts | 260° |
| 2026-04-22 21:46 | 51.32036 | -0.25297 | 2244 ft | 176 kts | 260° |
| 2026-04-22 21:46 | 51.31840 | -0.27221 | 2238 ft | 175 kts | 260° |
| 2026-04-22 21:47 | 51.31634 | -0.29150 | 2224 ft | 176 kts | 259° |
| 2026-04-22 21:47 | 51.31458 | -0.31079 | 2232 ft | 175 kts | 262° |
| 2026-04-22 21:47 | 51.31310 | -0.33007 | 2227 ft | 175 kts | 263° |
| 2026-04-22 21:47 | 51.31182 | -0.34939 | 2225 ft | 175 kts | 264° |
| 2026-04-22 21:48 | 51.31065 | -0.36882 | 2225 ft | 177 kts | 265° |
| 2026-04-22 21:48 | 51.30966 | -0.38815 | 2214 ft | 177 kts | 266° |
| 2026-04-22 21:48 | 51.31021 | -0.40765 | 2142 ft | 178 kts | 286° |
| 2026-04-22 21:48 | 51.31536 | -0.42540 | 2061 ft | 173 kts | 307° |
| 2026-04-22 21:49 | 51.32169 | -0.44140 | 2011 ft | 169 kts | 303° |
| 2026-04-22 21:49 | 51.32608 | -0.45914 | 1778 ft | 174 kts | 294° |
| 2026-04-22 21:49 | 51.33012 | -0.47723 | 1740 ft | 170 kts | 294° |
| 2026-04-22 21:49 | 51.33425 | -0.49496 | 1599 ft | 172 kts | 297° |
| 2026-04-22 21:50 | 51.33927 | -0.51233 | 1465 ft | 171 kts | 301° |
| 2026-04-22 21:50 | 51.34471 | -0.52875 | 1335 ft | 163 kts | 303° |
| 2026-04-22 21:50 | 51.34997 | -0.54469 | 1141 ft | 161 kts | 301° |
| 2026-04-22 21:50 | 51.35437 | -0.56090 | 957 ft | 156 kts | 287° |
| 2026-04-22 21:51 | 51.35440 | -0.57687 | 1015 ft | 136 kts | 260° |
| 2026-04-22 21:51 | 51.35222 | -0.59085 | 1046 ft | 123 kts | 249° |
| 2026-04-22 21:51 | 51.34945 | -0.60304 | 1105 ft | 112 kts | 233° |
| 2026-04-22 21:52 | 51.33898 | -0.60450 | 1050 ft | 73 kts | 110° |
| 2026-04-22 21:52 | 51.33731 | -0.59731 | 973 ft | 65 kts | 97° |
| 2026-04-22 21:52 | 51.33707 | -0.58976 | 801 ft | 72 kts | 80° |
| 2026-04-22 21:52 | 51.33836 | -0.58278 | 610 ft | 67 kts | 63° |
| 2026-04-22 21:53 | 51.34114 | -0.57693 | 399 ft | 59 kts | 68° |
| 2026-04-22 21:53 | 51.34303 | -0.57160 | 264 ft | 52 kts | 70° |
| 2026-04-22 21:53 | 51.34500 | -0.56656 | 150 ft | 55 kts | 66° |
| 2026-04-22 21:53 | 51.34678 | -0.56201 | 92 ft | 37 kts | 68° |
| 2026-04-22 21:54 | 51.34766 | -0.55969 | 83 ft | 16 kts | 57° |
| 2026-04-22 21:54 | 51.34803 | -0.55877 | 84 ft | 5 kts | 57° |
| 2026-04-22 21:54 | 51.34819 | -0.55836 | 79 ft | 7 kts | 58° |
| 2026-04-22 21:54 | 51.34863 | -0.55720 | 78 ft | 16 kts | 62° |
| 2026-04-22 21:55 | 51.34925 | -0.55555 | 81 ft | 17 kts | 59° |
| 2026-04-22 21:55 | 51.34978 | -0.55425 | 76 ft | 12 kts | 52° |
| 2026-04-22 21:55 | 51.35042 | -0.55437 | 88 ft | 17 kts | 328° |
| 2026-04-22 21:55 | 51.35174 | -0.55573 | 94 ft | 15 kts | 326° |
| 2026-04-22 21:56 | 51.35217 | -0.55631 | 98 ft | 0 kts | 332° |